Time;durP1;ratioP1;P1;durP2;ratioP2;P2;SDS_P1;SDS_P2;PMS_P1;PMS_P2;Temp;Humidity;BMP_temperature;BMP_pressure;BME280_temperature;BME280_humidity;BME280_pressure;Samples;Min_cycle;Max_cycle;Signal;HPM_P1;HPM_P2
2022/09/07 00:01:53;;;;;;;10.32;6.83;;;;;;;10.73;69.74;97459.25;1734184;81;25823;-84
2022/09/07 00:04:20;;;;;;;10.28;6.60;;;;;;;10.72;69.75;97461.64;1719387;82;25767;-85
2022/09/07 00:06:46;;;;;;;7.58;5.65;;;;;;;10.68;69.89;97460.91;1719616;81;26349;-85
2022/09/07 00:09:14;;;;;;;10.13;6.75;;;;;;;10.63;70.10;97460.70;1739819;80;25845;-85
2022/09/07 00:11:41;;;;;;;11.97;7.03;;;;;;;10.63;70.21;97463.40;1719418;81;27464;-85
2022/09/07 00:14:08;;;;;;;13.40;7.58;;;;;;;10.59;70.27;97460.31;1735173;81;25738;-85
2022/09/07 00:16:35;;;;;;;10.72;7.33;;;;;;;10.58;70.36;97456.47;1719244;81;26079;-85
2022/09/07 00:19:03;;;;;;;12.28;7.03;;;;;;;10.51;70.44;97459.16;1722596;81;26992;-85
2022/09/07 00:21:30;;;;;;;10.58;7.15;;;;;;;10.53;70.56;97449.51;1745323;81;25771;-84
2022/09/07 00:23:57;;;;;;;10.93;6.95;;;;;;;10.54;70.66;97459.27;1725467;81;27424;-84
2022/09/07 00:26:30;;;;;;;14.38;7.37;;;;;;;10.55;70.69;97455.53;1719219;81;25698;-84
2022/09/07 00:28:59;;;;;;;9.35;6.55;;;;;;;10.55;70.72;97459.06;1741225;81;25805;-85
2022/09/07 00:31:28;;;;;;;10.50;6.85;;;;;;;10.57;70.78;97450.76;1733754;82;25735;-84
2022/09/07 00:33:58;;;;;;;12.82;6.75;;;;;;;10.58;70.70;97449.72;1732436;82;25725;-85
2022/09/07 00:36:25;;;;;;;13.75;7.20;;;;;;;10.59;70.66;97455.43;1684102;82;28052;-85
2022/09/07 00:38:52;;;;;;;12.93;7.37;;;;;;;10.58;70.66;97455.13;1721483;82;25721;-86
2022/09/07 00:41:21;;;;;;;11.08;6.58;;;;;;;10.56;70.78;97459.89;1705432;82;26225;-85
2022/09/07 00:43:52;;;;;;;9.18;6.47;;;;;;;10.56;70.90;97453.14;1735012;81;25988;-85
2022/09/07 00:46:30;;;;;;;14.55;7.20;;;;;;;10.53;70.86;97455.73;1743469;81;26205;-85
2022/09/07 00:49:11;;;;;;;11.80;6.55;;;;;;;10.52;70.91;97461.34;1736209;81;27375;-85
2022/09/07 00:51:52;;;;;;;10.18;6.80;;;;;;;10.50;71.00;97456.70;1723096;81;26413;-85
2022/09/07 00:54:23;;;;;;;7.58;6.08;;;;;;;10.51;71.00;97451.58;1717653;81;25717;-84
2022/09/07 00:56:54;;;;;;;10.25;6.75;;;;;;;10.51;71.12;97458.33;1748172;81;25747;-85
2022/09/07 00:59:25;;;;;;;11.65;6.37;;;;;;;10.51;71.18;97453.77;1749116;81;25730;-85
2022/09/07 01:01:52;;;;;;;10.98;6.97;;;;;;;10.51;71.26;97455.63;1749158;81;27369;-86
2022/09/07 01:04:19;;;;;;;9.03;6.62;;;;;;;10.52;71.26;97458.64;1749041;81;25856;-85
2022/09/07 01:06:46;;;;;;;11.53;6.67;;;;;;;10.50;71.26;97457.53;1748551;81;25306;-85
2022/09/07 01:09:17;;;;;;;11.90;7.37;;;;;;;10.50;71.26;97459.40;1732735;82;26641;-85
2022/09/07 01:11:49;;;;;;;10.78;6.40;;;;;;;10.48;71.28;97453.38;1713870;82;25666;-84
2022/09/07 01:14:15;;;;;;;9.85;6.95;;;;;;;10.47;71.32;97456.59;1703425;82;27497;-84
2022/09/07 01:17:08;;;;;;;9.95;6.10;;;;;;;10.44;71.35;97455.13;1692867;82;25756;-84
2022/09/07 01:20:16;;;;;;;9.38;6.67;;;;;;;10.44;71.36;97454.30;1685914;82;25734;-84
2022/09/07 01:23:10;;;;;;;8.68;6.45;;;;;;;10.41;71.44;97455.55;1727076;82;25717;-85
2022/09/07 01:25:57;;;;;;;10.05;6.40;;;;;;;10.38;71.52;97454.64;1730536;82;25712;-84
2022/09/07 01:28:32;;;;;;;9.13;6.10;;;;;;;10.34;71.59;97447.16;1730869;82;27406;-84
2022/09/07 01:31:25;;;;;;;9.73;6.62;;;;;;;10.32;71.61;97444.66;1727062;82;26412;-84
2022/09/07 01:34:06;;;;;;;8.33;6.35;;;;;;;10.29;71.65;97445.07;1719340;81;25791;-84
2022/09/07 01:36:53;;;;;;;11.18;6.33;;;;;;;10.27;71.64;97449.01;1717540;82;26560;-84
2022/09/07 01:39:24;;;;;;;11.93;7.00;;;;;;;10.24;71.65;97442.70;1718011;81;25834;-84
2022/09/07 01:42:01;;;;;;;11.30;6.62;;;;;;;10.21;71.67;97435.84;1717387;81;28239;-84
2022/09/07 01:44:42;;;;;;;10.20;6.50;;;;;;;10.20;71.65;97442.28;1722697;81;25836;-84
2022/09/07 01:47:23;;;;;;;10.45;6.40;;;;;;;10.18;71.66;97440.30;1732829;81;26293;-84
2022/09/07 01:49:58;;;;;;;8.58;6.35;;;;;;;10.13;71.76;97440.60;1726127;81;25745;-84
2022/09/07 01:52:41;;;;;;;9.03;6.22;;;;;;;10.09;71.77;97442.88;1718683;82;26320;-84
2022/09/07 01:55:38;;;;;;;9.80;6.87;;;;;;;10.05;71.81;97438.41;1732185;81;27382;-85
2022/09/07 01:58:34;;;;;;;7.62;5.72;;;;;;;10.03;71.86;97436.95;1738366;81;25262;-84
2022/09/07 02:01:26;;;;;;;10.80;6.50;;;;;;;10.00;71.96;97434.69;1710036;81;25971;-84
2022/09/07 02:03:57;;;;;;;9.28;6.40;;;;;;;9.98;72.04;97431.36;1736065;81;25832;-84
2022/09/07 02:06:41;;;;;;;10.65;6.70;;;;;;;9.95;72.17;97423.16;1705553;81;33152;-84
2022/09/07 02:09:19;;;;;;;9.28;6.45;;;;;;;9.96;72.21;97423.99;1748534;81;28176;-84
2022/09/07 02:11:49;;;;;;;8.70;6.50;;;;;;;9.95;72.25;97425.02;1728971;82;25770;-84
2022/09/07 02:14:33;;;;;;;10.65;6.42;;;;;;;9.95;72.33;97419.63;1740197;81;25715;-84
2022/09/07 02:17:08;;;;;;;9.58;6.50;;;;;;;9.94;72.32;97414.75;1717728;82;26294;-85
2022/09/07 02:19:43;;;;;;;10.00;6.60;;;;;;;9.94;72.35;97412.58;1727928;82;25806;-84
2022/09/07 02:22:15;;;;;;;7.78;5.95;;;;;;;9.94;72.40;97408.53;1705948;83;27442;-84
2022/09/07 02:24:46;;;;;;;10.75;6.92;;;;;;;9.94;72.54;97405.83;1748207;81;30582;-84
2022/09/07 02:27:18;;;;;;;9.93;7.10;;;;;;;9.94;72.64;97411.23;1728085;81;25753;-84
2022/09/07 02:29:45;;;;;;;11.80;6.85;;;;;;;9.94;72.64;97407.19;1716605;83;25764;-84
2022/09/07 02:32:12;;;;;;;9.68;6.65;;;;;;;9.94;72.74;97401.79;1660175;84;25798;-84
2022/09/07 02:34:38;;;;;;;10.25;6.95;;;;;;;9.93;72.75;97402.30;1718899;81;28688;-84
2022/09/07 02:37:08;;;;;;;12.55;7.03;;;;;;;9.93;72.79;97398.27;1703535;82;25749;-84
2022/09/07 02:39:36;;;;;;;9.83;7.22;;;;;;;9.91;72.79;97392.76;1691394;82;26262;-84
2022/09/07 02:42:02;;;;;;;9.83;6.62;;;;;;;9.93;72.81;97385.30;1696079;82;25861;-84
2022/09/07 02:44:34;;;;;;;9.33;6.55;;;;;;;9.91;72.89;97389.55;1707133;82;25710;-84
2022/09/07 02:47:22;;;;;;;8.95;7.35;;;;;;;9.90;72.93;97383.05;1707137;82;27442;-84
2022/09/07 02:50:27;;;;;;;11.45;6.75;;;;;;;9.88;73.03;97385.11;1678376;82;25704;-83
2022/09/07 02:53:27;;;;;;;9.90;6.53;;;;;;;9.87;73.06;97386.14;1674960;82;25303;-85
2022/09/07 02:56:11;;;;;;;11.48;7.33;;;;;;;9.86;73.18;97386.66;1700216;82;26494;-84
2022/09/07 02:58:55;;;;;;;9.05;7.08;;;;;;;9.83;73.32;97385.72;1697295;83;25776;-85
2022/09/07 03:01:44;;;;;;;12.98;6.37;;;;;;;9.81;73.44;97384.27;1709574;82;27411;-85
2022/09/07 03:04:22;;;;;;;8.98;6.70;;;;;;;9.81;73.48;97385.09;1692460;83;25777;-85
2022/09/07 03:07:27;;;;;;;8.68;6.53;;;;;;;9.83;73.48;97386.23;1693247;82;25798;-85
2022/09/07 03:09:57;;;;;;;10.10;6.55;;;;;;;9.84;73.50;97378.46;1706141;82;28142;-85
2022/09/07 03:12:24;;;;;;;11.90;7.35;;;;;;;9.86;73.55;97387.18;1731526;81;25814;-85
2022/09/07 03:14:50;;;;;;;11.45;6.92;;;;;;;9.87;73.61;97394.23;1691142;83;28428;-85
2022/09/07 03:17:17;;;;;;;10.50;6.95;;;;;;;9.88;73.64;97394.55;1712749;83;25800;-85
2022/09/07 03:19:43;;;;;;;10.38;7.22;;;;;;;9.89;73.66;97386.77;1715709;82;25825;-85
2022/09/07 03:22:10;;;;;;;9.98;6.53;;;;;;;9.89;73.66;97386.77;1728385;82;25736;-85
2022/09/07 03:24:36;;;;;;;8.60;6.80;;;;;;;9.85;73.69;97381.47;1712987;83;26047;-85
2022/09/07 03:27:03;;;;;;;8.93;6.55;;;;;;;9.83;73.78;97385.72;1739255;82;27352;-85
2022/09/07 03:29:29;;;;;;;12.37;7.17;;;;;;;9.82;73.84;97389.97;1696944;83;25883;-85
2022/09/07 03:31:56;;;;;;;12.73;7.53;;;;;;;9.81;73.93;97386.44;1694764;82;26243;-85
2022/09/07 03:34:23;;;;;;;10.13;7.15;;;;;;;9.83;74.00;97386.23;1721753;83;25730;-85
2022/09/07 03:36:50;;;;;;;11.88;7.42;;;;;;;9.84;73.96;97387.90;1697510;84;25831;-84
2022/09/07 03:39:19;;;;;;;11.73;7.40;;;;;;;9.83;73.96;97391.63;1724832;82;28217;-84
2022/09/07 03:41:45;;;;;;;10.95;6.85;;;;;;;9.83;73.99;97392.98;1689424;82;25726;-84
2022/09/07 03:44:11;;;;;;;9.93;6.55;;;;;;;9.82;73.97;97392.66;1726952;82;25231;-84
2022/09/07 03:46:38;;;;;;;11.93;7.37;;;;;;;9.81;73.91;97387.79;1726495;82;25889;-85
2022/09/07 03:49:04;;;;;;;9.85;7.30;;;;;;;9.82;74.01;97384.06;1697589;84;26015;-85
2022/09/07 03:51:31;;;;;;;9.58;7.05;;;;;;;9.80;74.04;97394.73;1690707;84;27470;-85
2022/09/07 03:53:59;;;;;;;9.18;6.72;;;;;;;9.75;74.02;97396.20;1705656;83;25821;-85
2022/09/07 03:56:26;;;;;;;11.00;6.90;;;;;;;9.72;74.08;97397.95;1694303;83;25678;-84
2022/09/07 03:58:56;;;;;;;11.83;7.28;;;;;;;9.69;74.11;97394.31;1725468;83;26490;-85
2022/09/07 04:01:25;;;;;;;11.15;7.67;;;;;;;9.70;74.08;97397.84;1714578;83;25966;-85
2022/09/07 04:03:54;;;;;;;9.43;7.25;;;;;;;9.63;74.10;97394.32;1703637;83;27365;-85
2022/09/07 04:06:21;;;;;;;9.18;6.65;;;;;;;9.61;74.19;97404.47;1716172;82;25264;-84
2022/09/07 04:08:48;;;;;;;12.00;6.75;;;;;;;9.58;74.30;97399.48;1698593;84;25714;-84
2022/09/07 04:11:17;;;;;;;12.25;7.47;;;;;;;9.59;74.32;97401.14;1697534;84;25667;-84
2022/09/07 04:13:45;;;;;;;9.50;7.17;;;;;;;9.58;74.32;97404.36;1697492;84;25766;-84
2022/09/07 04:16:22;;;;;;;11.43;7.50;;;;;;;9.59;74.34;97404.67;1712056;83;28414;-84
2022/09/07 04:18:49;;;;;;;10.10;6.95;;;;;;;9.59;74.35;97401.98;1706248;83;25280;-85
2022/09/07 04:21:17;;;;;;;11.95;6.83;;;;;;;9.57;74.33;97406.73;1725443;83;25648;-85
2022/09/07 04:23:44;;;;;;;15.05;7.78;;;;;;;9.55;74.33;97406.11;1702961;83;25766;-84
2022/09/07 04:26:29;;;;;;;15.50;8.18;;;;;;;9.56;74.34;97410.46;1707482;83;25797;-84
2022/09/07 04:28:56;;;;;;;15.70;9.08;;;;;;;9.56;74.34;97410.46;1693050;84;27384;-84
2022/09/07 04:31:24;;;;;;;10.95;8.35;;;;;;;9.55;74.35;97418.75;1697485;84;25843;-85
2022/09/07 04:33:53;;;;;;;8.38;6.92;;;;;;;9.54;74.36;97423.30;1674618;84;25715;-85
2022/09/07 04:36:20;;;;;;;11.30;7.40;;;;;;;9.54;74.36;97428.69;1669446;84;25754;-85
2022/09/07 04:38:56;;;;;;;11.73;7.42;;;;;;;9.52;74.42;97424.05;1687903;84;25933;-84
2022/09/07 04:41:23;;;;;;;10.15;7.42;;;;;;;9.46;74.47;97420.81;1678809;83;27381;-85
2022/09/07 04:43:54;;;;;;;12.00;7.92;;;;;;;9.46;74.64;97416.77;1717222;83;25694;-85
2022/09/07 04:46:32;;;;;;;9.98;7.47;;;;;;;9.48;74.68;97418.75;1714105;82;25730;-85
2022/09/07 04:49:02;;;;;;;12.95;8.00;;;;;;;9.49;74.72;97425.80;1697094;83;26550;-85
2022/09/07 04:51:31;;;;;;;10.30;7.70;;;;;;;9.48;74.83;97418.75;1687381;84;25754;-85
2022/09/07 04:54:00;;;;;;;13.40;8.13;;;;;;;9.50;74.85;97419.38;1669443;84;28018;-85
2022/09/07 04:56:27;;;;;;;14.50;8.28;;;;;;;9.52;74.92;97425.40;1685597;83;25778;-85
2022/09/07 04:58:54;;;;;;;8.88;7.67;;;;;;;9.55;74.94;97417.40;1707451;83;25694;-85
2022/09/07 05:01:23;;;;;;;14.28;8.55;;;;;;;9.57;75.04;97417.52;1702658;83;25766;-85
2022/09/07 05:03:50;;;;;;;13.72;9.05;;;;;;;9.62;75.11;97418.26;1705275;83;26545;-84
2022/09/07 05:06:19;;;;;;;15.00;9.28;;;;;;;9.66;75.18;97418.17;1710017;82;27406;-84
2022/09/07 05:08:49;;;;;;;18.77;10.13;;;;;;;9.69;75.26;97415.88;1707577;83;25737;-84
2022/09/07 05:11:18;;;;;;;12.90;8.63;;;;;;;9.74;75.27;97410.71;1704542;83;25660;-85
2022/09/07 05:13:45;;;;;;;14.87;8.85;;;;;;;9.79;75.27;97409.23;1719748;82;25831;-84
2022/09/07 05:16:16;;;;;;;12.15;8.15;;;;;;;9.82;75.33;97406.14;1725423;83;25730;-84
2022/09/07 05:18:43;;;;;;;12.47;8.95;;;;;;;9.83;75.49;97409.98;1672405;84;27363;-84
2022/09/07 05:21:14;;;;;;;16.23;8.90;;;;;;;9.82;75.56;97404.80;1716601;83;25808;-84
2022/09/07 05:23:41;;;;;;;12.58;9.08;;;;;;;9.87;75.61;97402.32;1725041;83;25694;-85
2022/09/07 05:26:09;;;;;;;12.13;9.25;;;;;;;9.91;75.76;97394.11;1725398;83;25795;-84
2022/09/07 05:28:37;;;;;;;16.45;10.32;;;;;;;9.97;75.75;97395.99;1703060;82;25711;-84
2022/09/07 05:31:06;;;;;;;17.40;11.18;;;;;;;10.02;75.82;97399.70;1714495;83;27347;-85
2022/09/07 05:33:34;;;;;;;17.57;11.00;;;;;;;10.08;75.87;97402.11;1715247;83;25719;-84
2022/09/07 05:36:01;;;;;;;18.90;10.20;;;;;;;10.14;75.87;97405.33;1710089;82;25749;-84
2022/09/07 05:38:29;;;;;;;17.15;10.65;;;;;;;10.21;75.83;97402.13;1688673;81;26510;-84
2022/09/07 05:40:55;;;;;;;17.48;11.38;;;;;;;10.28;75.95;97399.41;1744547;81;25760;-84
2022/09/07 05:43:22;;;;;;;19.55;11.33;;;;;;;10.33;75.92;97401.80;1719729;82;27410;-84
2022/09/07 05:45:56;;;;;;;16.80;10.88;;;;;;;10.39;76.12;97402.30;1704299;82;25862;-84
2022/09/07 05:48:23;;;;;;;18.45;11.63;;;;;;;10.43;76.26;97406.25;1749181;81;25761;-84
2022/09/07 05:50:51;;;;;;;17.07;11.08;;;;;;;10.47;76.37;97405.31;1733072;82;26485;-84
2022/09/07 05:53:19;;;;;;;16.48;10.95;;;;;;;10.48;76.28;97398.88;1732636;82;25753;-84
2022/09/07 05:55:49;;;;;;;19.32;11.43;;;;;;;10.55;76.30;97400.20;1714239;82;27378;-84
2022/09/07 05:58:16;;;;;;;17.98;12.03;;;;;;;10.63;76.25;97401.31;1713143;83;25786;-84
2022/09/07 06:00:44;;;;;;;26.37;17.12;;;;;;;10.70;76.19;97403.49;1718538;83;25798;-84
2022/09/07 06:03:11;;;;;;;28.57;16.65;;;;;;;10.79;76.10;97403.56;1746222;81;26620;-84
2022/09/07 06:05:38;;;;;;;23.35;16.75;;;;;;;10.88;76.04;97404.98;1730724;81;25679;-84
2022/09/07 06:08:04;;;;;;;30.25;17.05;;;;;;;10.98;75.99;97412.13;1732735;82;27353;-84
2022/09/07 06:10:36;;;;;;;25.70;15.28;;;;;;;11.06;75.92;97415.94;1740296;82;25721;-84
2022/09/07 06:13:03;;;;;;;21.00;15.45;;;;;;;11.15;75.89;97406.53;1729836;82;26237;-85
2022/09/07 06:15:33;;;;;;;24.35;16.35;;;;;;;11.24;75.97;97407.11;1740158;81;25782;-85
2022/09/07 06:18:00;;;;;;;25.32;14.53;;;;;;;11.31;76.02;97405.22;1736790;81;25800;-84
2022/09/07 06:20:26;;;;;;;26.27;16.20;;;;;;;11.40;76.03;97409.32;1719003;83;28519;-85
2022/09/07 06:22:53;;;;;;;22.87;14.07;;;;;;;11.49;76.07;97405.31;1748941;81;25723;-84
2022/09/07 06:25:19;;;;;;;20.00;13.40;;;;;;;11.58;75.99;97401.85;1748925;81;26493;-84
2022/09/07 06:27:48;;;;;;;20.12;12.37;;;;;;;11.68;76.00;97399.49;1732782;82;25670;-84
2022/09/07 06:30:14;;;;;;;16.62;11.18;;;;;;;11.77;76.00;97400.08;1740401;82;25705;-84
2022/09/07 06:32:41;;;;;;;16.05;10.08;;;;;;;11.86;75.93;97399.59;1739161;80;27368;-84
2022/09/07 06:35:09;;;;;;;15.83;11.55;;;;;;;11.96;75.89;97391.50;1738026;81;25833;-84
2022/09/07 06:37:35;;;;;;;15.25;11.00;;;;;;;12.05;75.88;97385.61;1718837;83;25741;-84
2022/09/07 06:40:02;;;;;;;16.35;11.97;;;;;;;12.16;75.83;97386.77;1748850;81;26303;-84
2022/09/07 06:42:29;;;;;;;16.50;11.65;;;;;;;12.26;75.91;97387.09;1733590;82;26271;-84
2022/09/07 06:44:57;;;;;;;16.25;11.35;;;;;;;12.36;75.93;97384.70;1740236;82;28259;-84
2022/09/07 06:47:24;;;;;;;22.40;12.28;;;;;;;12.47;75.85;97396.14;1748946;81;25673;-84
2022/09/07 06:49:50;;;;;;;16.45;11.28;;;;;;;12.56;75.89;97389.38;1733004;82;25718;-84
2022/09/07 06:52:17;;;;;;;17.37;11.65;;;;;;;12.67;75.95;97388.36;1740856;82;25711;-84
2022/09/07 06:54:43;;;;;;;19.95;12.95;;;;;;;12.78;76.03;97388.96;1675861;83;26371;-84
2022/09/07 06:57:10;;;;;;;17.30;11.12;;;;;;;12.88;76.09;97386.55;1706421;82;28314;-84
2022/09/07 06:59:37;;;;;;;20.23;12.25;;;;;;;13.00;76.07;97382.02;1729838;82;25667;-84
2022/09/07 07:02:06;;;;;;;14.65;10.40;;;;;;;13.11;76.05;97381.78;1745852;82;25769;-84
2022/09/07 07:04:33;;;;;;;15.63;10.63;;;;;;;13.23;75.92;97378.64;1713864;81;25694;-84
2022/09/07 07:07:00;;;;;;;17.27;10.55;;;;;;;13.33;75.67;97378.38;1703416;82;26004;-84
2022/09/07 07:09:26;;;;;;;15.88;10.28;;;;;;;13.45;75.65;97369.47;1735670;81;27370;-84
2022/09/07 07:11:53;;;;;;;14.23;9.70;;;;;;;13.59;75.74;97375.00;1743883;81;25784;-84
2022/09/07 07:14:20;;;;;;;16.50;10.38;;;;;;;13.73;75.62;97371.57;1733519;81;25884;-84
2022/09/07 07:16:46;;;;;;;13.50;9.48;;;;;;;13.85;75.63;97371.89;1717876;83;26435;-84
2022/09/07 07:19:13;;;;;;;11.70;9.08;;;;;;;14.01;75.59;97366.30;1749242;80;25752;-84
2022/09/07 07:21:40;;;;;;;14.80;9.10;;;;;;;14.16;75.65;97369.91;1749268;81;28228;-85
2022/09/07 07:24:06;;;;;;;12.58;8.93;;;;;;;14.33;75.40;97369.53;1692691;82;25662;-84
2022/09/07 07:26:33;;;;;;;10.00;8.30;;;;;;;14.47;75.21;97368.27;1732858;82;25746;-84
2022/09/07 07:29:00;;;;;;;11.60;8.90;;;;;;;14.64;75.20;97361.03;1732496;82;26222;-85
2022/09/07 07:31:27;;;;;;;14.13;8.40;;;;;;;14.86;75.03;97369.91;1732803;82;26168;-85
2022/09/07 07:33:54;;;;;;;10.10;8.80;;;;;;;15.09;74.73;97376.11;1732552;82;27350;-85
2022/09/07 07:36:26;;;;;;;11.18;8.00;;;;;;;15.40;74.67;97376.20;1732713;82;25963;-85
2022/09/07 07:38:55;;;;;;;16.48;8.75;;;;;;;15.76;74.22;97371.45;1732830;82;25892;-86
2022/09/07 07:41:26;;;;;;;9.85;8.15;;;;;;;16.13;73.77;97374.55;1732576;82;26518;-86
2022/09/07 07:43:57;;;;;;;10.53;7.60;;;;;;;16.50;73.50;97368.05;1699755;82;25826;-86
2022/09/07 07:46:24;;;;;;;10.60;7.22;;;;;;;16.85;73.13;97364.48;1732760;82;28035;-85
2022/09/07 07:48:52;;;;;;;11.10;7.12;;;;;;;17.23;72.69;97363.61;1732653;82;25736;-86
2022/09/07 07:51:19;;;;;;;8.63;6.28;;;;;;;17.58;72.33;97365.91;1732937;82;25770;-86
2022/09/07 07:53:45;;;;;;;8.18;6.40;;;;;;;17.94;71.70;97363.56;1715121;82;25781;-85
2022/09/07 07:56:13;;;;;;;8.98;7.05;;;;;;;18.26;71.23;97360.28;1724945;81;25791;-86
2022/09/07 07:58:44;;;;;;;7.60;6.62;;;;;;;18.60;70.70;97361.36;1732881;82;28127;-86
2022/09/07 08:01:14;;;;;;;11.85;6.42;;;;;;;18.95;70.26;97353.39;1711947;82;25755;-85
2022/09/07 08:03:42;;;;;;;7.70;6.25;;;;;;;19.28;69.37;97359.00;1715271;82;25756;-87
2022/09/07 08:06:13;;;;;;;8.03;6.17;;;;;;;19.60;68.99;97360.22;1706903;83;26385;-83
2022/09/07 08:08:40;;;;;;;11.80;6.97;;;;;;;19.98;68.47;97351.25;1747427;81;25756;-84
2022/09/07 08:11:15;;;;;;;8.48;6.40;;;;;;;20.68;67.19;97349.05;1732923;82;27397;-85
2022/09/07 08:13:44;;;;;;;11.00;6.72;;;;;;;20.68;67.19;97349.05;1731160;82;25720;-85
2022/09/07 08:16:12;;;;;;;10.20;6.20;;;;;;;21.05;66.55;97345.92;1719308;82;25741;-85
2022/09/07 08:18:39;;;;;;;7.12;5.50;;;;;;;21.40;65.84;97346.91;1720214;82;26620;-85
2022/09/07 08:21:13;;;;;;;7.08;5.65;;;;;;;21.76;65.11;97352.47;1687165;82;25702;-85
2022/09/07 08:23:41;;;;;;;8.23;6.20;;;;;;;22.14;64.51;97344.55;1703631;82;27493;-87
2022/09/07 08:26:08;;;;;;;7.05;6.10;;;;;;;22.44;63.95;97341.56;1731529;81;26485;-87
2022/09/07 08:28:39;;;;;;;8.83;6.00;;;;;;;22.81;63.28;97341.50;1732828;82;25964;-88
2022/09/07 08:31:12;;;;;;;6.45;5.70;;;;;;;23.02;61.94;97336.59;1732681;82;26500;-89
2022/09/07 08:33:39;;;;;;;7.90;5.87;;;;;;;23.22;62.04;97333.03;1731176;82;26057;-87
2022/09/07 08:36:15;;;;;;;5.72;5.12;;;;;;;23.47;61.18;97336.02;1731373;82;27638;-89
2022/09/07 08:38:42;;;;;;;6.00;4.85;;;;;;;23.76;61.12;97340.06;1699885;82;25710;-88
2022/09/07 08:41:53;;;;;;;4.90;4.35;;;;;;;24.03;60.13;97327.78;1719080;81;25977;-87
2022/09/07 08:44:45;;;;;;;4.40;4.00;;;;;;;24.19;59.47;97327.54;1746779;81;25974;-88
2022/09/07 08:47:41;;;;;;;4.83;4.42;;;;;;;24.41;59.05;97323.61;1686491;83;25837;-86
2022/09/07 08:50:29;;;;;;;6.40;4.45;;;;;;;24.53;58.08;97321.19;1740038;82;27417;-89
2022/09/07 08:53:13;;;;;;;5.62;5.03;;;;;;;24.67;57.65;97316.52;1748927;81;25779;-88
2022/09/07 08:55:52;;;;;;;5.75;4.80;;;;;;;24.80;57.04;97308.56;1733302;82;25808;-87
2022/09/07 08:58:43;;;;;;;7.42;5.60;;;;;;;24.94;56.31;97305.28;1696767;82;25724;-88
2022/09/07 09:01:16;;;;;;;6.50;5.73;;;;;;;25.02;56.17;97301.23;1729060;82;25690;-88
2022/09/07 09:03:43;;;;;;;8.50;5.33;;;;;;;25.17;55.58;97297.36;1713843;82;27380;-90
2022/09/07 09:06:30;;;;;;;6.33;5.15;;;;;;;25.28;55.27;97298.77;1725493;81;25761;-89
2022/09/07 09:09:27;;;;;;;6.60;4.80;;;;;;;25.45;55.08;97293.44;1748791;81;25705;-89
2022/09/07 09:12:25;;;;;;;6.85;5.03;;;;;;;25.62;54.52;97297.52;1689481;82;25835;-89
2022/09/07 09:15:21;;;;;;;8.18;4.53;;;;;;;25.51;53.43;97289.16;1709475;81;25861;-89
2022/09/07 09:18:29;;;;;;;8.75;5.65;;;;;;;25.65;53.29;97288.61;1719048;81;28279;-91
2022/09/07 09:20:58;;;;;;;6.97;5.35;;;;;;;25.82;52.85;97286.00;1633170;83;26030;-91
2022/09/07 09:23:29;;;;;;;5.50;4.95;;;;;;;25.95;52.21;97287.09;1718944;81;25913;-90
2022/09/07 09:26:21;;;;;;;8.55;5.40;;;;;;;26.09;52.04;97288.64;1728615;82;26548;-88
2022/09/07 09:28:48;;;;;;;6.92;6.10;;;;;;;26.03;51.64;97283.00;1724254;81;25267;-92
2022/09/07 09:31:21;;;;;;;11.22;5.22;;;;;;;26.22;51.93;97287.51;1731845;81;27360;-91
2022/09/07 09:34:14;;;;;;;5.85;4.95;;;;;;;26.39;51.48;97292.64;1727505;81;25454;-92
2022/09/07 09:36:49;;;;;;;;;;;;;;;26.57;51.42;97290.77;1730272;83;26338;-90
2022/09/07 09:39:35;;;;;;;11.05;5.62;;;;;;;26.75;50.15;97285.59;1679787;83;25843;-90
2022/09/07 09:42:13;;;;;;;6.65;5.60;;;;;;;26.86;50.97;97284.17;1680368;84;25755;-91
2022/09/07 09:44:41;;;;;;;6.22;5.10;;;;;;;27.01;50.63;97282.14;1653552;84;27488;-91
2022/09/07 09:47:25;;;;;;;5.20;4.70;;;;;;;27.14;50.45;97274.28;1717539;83;25796;-85
2022/09/07 09:49:52;;;;;;;11.30;5.90;;;;;;;27.26;50.15;97273.09;1715542;83;25865;-85
2022/09/07 09:52:22;;;;;;;10.72;6.03;;;;;;;27.44;49.83;97277.52;1698477;83;25675;-87
2022/09/07 09:54:52;;;;;;;7.37;5.10;;;;;;;27.56;49.45;97279.13;1717678;83;25740;-89
2022/09/07 09:57:52;;;;;;;9.38;5.53;;;;;;;27.64;49.12;97276.70;1717950;83;27301;-88
2022/09/07 10:00:23;;;;;;;12.03;6.50;;;;;;;27.69;48.55;97267.64;1672408;84;25747;-87
2022/09/07 10:03:13;;;;;;;8.00;4.72;;;;;;;27.73;48.34;97269.20;1676148;84;25782;-86
2022/09/07 10:05:45;;;;;;;7.92;5.28;;;;;;;27.73;47.29;97269.20;1655500;84;25784;-90
2022/09/07 10:08:27;;;;;;;9.38;5.58;;;;;;;27.57;47.82;97261.35;1720208;83;26394;-89
2022/09/07 10:11:11;;;;;;;7.47;5.10;;;;;;;27.67;47.75;97263.55;1727238;83;28298;-87
2022/09/07 10:13:51;;;;;;;5.42;4.75;;;;;;;27.73;47.34;97266.42;1700495;83;25812;-88
2022/09/07 10:16:17;;;;;;;5.08;4.58;;;;;;;27.62;47.04;97261.77;1682437;84;25809;-87
2022/09/07 10:18:58;;;;;;;6.17;5.20;;;;;;;27.66;47.28;97257.76;1714146;83;26230;-89
2022/09/07 10:21:30;;;;;;;5.87;5.15;;;;;;;27.77;47.59;97261.88;1727727;83;26265;-85
2022/09/07 10:24:11;;;;;;;5.53;4.95;;;;;;;27.90;47.43;97262.25;1679798;83;27601;-90
2022/09/07 10:26:39;;;;;;;6.87;5.12;;;;;;;27.93;47.02;97262.99;1700090;84;25758;-87
2022/09/07 10:29:30;;;;;;;7.47;5.30;;;;;;;28.06;46.97;97259.80;1727396;83;25914;-86
2022/09/07 10:32:07;;;;;;;6.15;5.12;;;;;;;28.10;46.63;97251.08;1726087;82;26219;-88
2022/09/07 10:34:57;;;;;;;5.67;5.08;;;;;;;28.14;46.98;97258.97;1716307;81;26397;-85
2022/09/07 10:37:50;;;;;;;6.67;5.28;;;;;;;28.24;46.67;97258.69;1742519;81;27384;-84
2022/09/07 10:40:33;;;;;;;6.42;5.45;;;;;;;28.24;46.64;97254.52;1653017;86;25844;-85
2022/09/07 10:43:49;;;;;;;6.60;5.42;;;;;;;28.20;46.15;97261.30;1719064;81;25692;-87
2022/09/07 10:46:42;;;;;;;6.55;5.35;;;;;;;27.96;45.63;97249.30;1746714;80;26466;-87
2022/09/07 10:49:33;;;;;;;7.35;5.30;;;;;;;27.93;46.10;97244.97;1719363;83;25844;-87
2022/09/07 10:52:31;;;;;;;8.43;5.50;;;;;;;28.03;46.30;97252.13;1708276;83;27433;-87
2022/09/07 10:55:25;;;;;;;6.97;5.75;;;;;;;28.06;46.19;97247.31;1670452;83;25723;-87
2022/09/07 10:58:17;;;;;;;9.65;5.80;;;;;;;28.05;45.86;97245.12;1743319;81;25782;-87
2022/09/07 11:01:27;;;;;;;9.48;5.90;;;;;;;28.08;45.77;97245.86;1735686;82;29608;-86
2022/09/07 11:04:17;;;;;;;7.50;4.97;;;;;;;28.02;45.47;97240.22;1735281;81;25725;-86
2022/09/07 11:06:48;;;;;;;6.55;5.58;;;;;;;27.86;45.35;97241.87;1737837;81;27368;-85
2022/09/07 11:10:04;;;;;;;8.00;5.55;;;;;;;27.86;45.82;97246.86;1716778;81;25903;-87
2022/09/07 11:12:36;;;;;;;11.48;5.03;;;;;;;27.85;45.35;97241.06;1728869;81;25498;-86
2022/09/07 11:15:15;;;;;;;7.42;4.95;;;;;;;27.87;45.79;97246.28;1745874;81;26326;-87
2022/09/07 11:17:47;;;;;;;7.00;5.10;;;;;;;27.90;45.76;97246.42;1741364;81;25775;-86
2022/09/07 11:20:19;;;;;;;;;;;;;;;27.97;45.99;97243.17;1749160;81;27370;-87
2022/09/07 11:23:09;;;;;;;9.10;5.40;;;;;;;28.00;45.06;97242.53;1745947;81;25882;-86
2022/09/07 11:25:58;;;;;;;9.20;5.17;;;;;;;27.98;45.59;97244.81;1740256;81;25720;-87
2022/09/07 11:28:50;;;;;;;5.87;5.28;;;;;;;28.04;45.58;97245.44;1717012;81;26432;-86
2022/09/07 11:31:28;;;;;;;10.70;5.55;;;;;;;28.07;46.00;97247.00;1730419;81;25647;-86
2022/09/07 11:34:06;;;;;;;5.83;4.90;;;;;;;28.08;45.89;97244.47;1715927;83;27386;-87
2022/09/07 11:36:38;;;;;;;7.22;5.70;;;;;;;27.97;45.03;97244.56;1730412;82;25836;-85
2022/09/07 11:39:10;;;;;;;;;;;;;;;27.94;45.28;97239.09;1705243;82;25738;-86
2022/09/07 11:41:48;;;;;;;6.05;5.35;;;;;;;27.97;45.29;97240.40;1681036;83;25752;-87
2022/09/07 11:44:23;;;;;;;10.00;5.42;;;;;;;27.94;45.38;97236.89;1731421;82;25751;-86
2022/09/07 11:46:58;;;;;;;7.10;5.20;;;;;;;27.85;45.18;97227.20;1726456;82;27423;-87
2022/09/07 11:49:25;;;;;;;7.78;5.50;;;;;;;27.79;44.84;97233.22;1722920;83;25874;-85
2022/09/07 11:52:03;;;;;;;6.87;5.03;;;;;;;27.77;45.08;97225.82;1702144;83;25798;-83
2022/09/07 11:54:47;;;;;;;5.85;4.67;;;;;;;27.78;44.93;97228.23;1704291;83;25814;-84
2022/09/07 11:57:37;;;;;;;7.65;5.50;;;;;;;27.82;45.46;97224.25;1704382;83;25807;-86
2022/09/07 12:00:19;;;;;;;8.48;5.33;;;;;;;27.83;45.22;97223.92;1674287;83;28167;-87
2022/09/07 12:03:20;;;;;;;6.72;5.00;;;;;;;27.77;44.87;97217.50;1717342;83;26362;-86
2022/09/07 12:06:27;;;;;;;6.90;4.62;;;;;;;27.77;45.00;97221.09;1683264;84;25859;-86